sensor_id;sensor_type;location;lat;lon;timestamp;temperature;humidity
64987;DHT22;67903;52.108;9.358;2024-02-15T00:01:14;11.10;99.80
64987;DHT22;67903;52.108;9.358;2024-02-15T00:04:00;11.10;99.90
64987;DHT22;67903;52.108;9.358;2024-02-15T00:06:46;11.10;99.90
64987;DHT22;67903;52.108;9.358;2024-02-15T00:09:31;11.00;99.90
64987;DHT22;67903;52.108;9.358;2024-02-15T00:12:17;11.00;99.90
64987;DHT22;67903;52.108;9.358;2024-02-15T00:15:03;10.90;99.90
64987;DHT22;67903;52.108;9.358;2024-02-15T00:17:50;10.90;99.90
64987;DHT22;67903;52.108;9.358;2024-02-15T00:20:37;10.90;99.90
64987;DHT22;67903;52.108;9.358;2024-02-15T00:23:24;10.90;99.90
64987;DHT22;67903;52.108;9.358;2024-02-15T00:26:09;10.90;99.90
64987;DHT22;67903;52.108;9.358;2024-02-15T00:28:57;10.90;99.90
64987;DHT22;67903;52.108;9.358;2024-02-15T00:31:44;10.90;99.90
64987;DHT22;67903;52.108;9.358;2024-02-15T00:34:30;10.90;99.90
64987;DHT22;67903;52.108;9.358;2024-02-15T00:37:16;10.90;99.90
64987;DHT22;67903;52.108;9.358;2024-02-15T00:40:02;10.90;99.90
64987;DHT22;67903;52.108;9.358;2024-02-15T00:42:49;10.80;99.90
64987;DHT22;67903;52.108;9.358;2024-02-15T00:45:34;10.80;99.90
64987;DHT22;67903;52.108;9.358;2024-02-15T00:48:20;10.80;99.90
64987;DHT22;67903;52.108;9.358;2024-02-15T00:51:06;10.80;99.90
64987;DHT22;67903;52.108;9.358;2024-02-15T00:53:52;10.80;99.90
64987;DHT22;67903;52.108;9.358;2024-02-15T00:56:37;10.80;99.90
64987;DHT22;67903;52.108;9.358;2024-02-15T00:59:23;10.70;99.90
64987;DHT22;67903;52.108;9.358;2024-02-15T01:02:08;10.70;99.90
64987;DHT22;67903;52.108;9.358;2024-02-15T01:04:54;10.70;99.90
64987;DHT22;67903;52.108;9.358;2024-02-15T01:07:43;10.70;99.90
64987;DHT22;67903;52.108;9.358;2024-02-15T01:10:28;10.70;99.90
64987;DHT22;67903;52.108;9.358;2024-02-15T01:13:14;10.70;99.90
64987;DHT22;67903;52.108;9.358;2024-02-15T01:16:00;10.70;99.90
64987;DHT22;67903;52.108;9.358;2024-02-15T01:18:49;10.70;99.90
64987;DHT22;67903;52.108;9.358;2024-02-15T01:21:35;10.80;99.90
64987;DHT22;67903;52.108;9.358;2024-02-15T01:24:20;10.80;99.90
64987;DHT22;67903;52.108;9.358;2024-02-15T01:27:06;10.70;99.90
64987;DHT22;67903;52.108;9.358;2024-02-15T01:29:52;10.70;99.90
64987;DHT22;67903;52.108;9.358;2024-02-15T01:32:38;10.70;99.90
64987;DHT22;67903;52.108;9.358;2024-02-15T01:35:27;10.70;99.90
64987;DHT22;67903;52.108;9.358;2024-02-15T01:38:13;10.70;99.90
64987;DHT22;67903;52.108;9.358;2024-02-15T01:40:59;10.70;99.90
64987;DHT22;67903;52.108;9.358;2024-02-15T01:43:45;10.60;99.90
64987;DHT22;67903;52.108;9.358;2024-02-15T01:46:31;10.70;99.90
64987;DHT22;67903;52.108;9.358;2024-02-15T01:49:17;10.70;99.90
64987;DHT22;67903;52.108;9.358;2024-02-15T01:52:04;10.70;99.90
64987;DHT22;67903;52.108;9.358;2024-02-15T01:54:52;10.70;99.90
64987;DHT22;67903;52.108;9.358;2024-02-15T01:57:39;10.70;99.90
64987;DHT22;67903;52.108;9.358;2024-02-15T02:00:25;10.80;99.90
64987;DHT22;67903;52.108;9.358;2024-02-15T02:03:10;10.90;99.90
64987;DHT22;67903;52.108;9.358;2024-02-15T02:05:58;11.00;99.90
64987;DHT22;67903;52.108;9.358;2024-02-15T02:08:45;11.10;99.90
64987;DHT22;67903;52.108;9.358;2024-02-15T02:11:31;11.10;99.90
64987;DHT22;67903;52.108;9.358;2024-02-15T02:14:16;11.10;99.90
64987;DHT22;67903;52.108;9.358;2024-02-15T02:17:13;11.10;99.90
64987;DHT22;67903;52.108;9.358;2024-02-15T02:19:59;11.00;99.90
64987;DHT22;67903;52.108;9.358;2024-02-15T02:22:48;11.00;99.90
64987;DHT22;67903;52.108;9.358;2024-02-15T02:25:35;11.00;99.90
64987;DHT22;67903;52.108;9.358;2024-02-15T02:28:21;10.90;99.90
64987;DHT22;67903;52.108;9.358;2024-02-15T02:31:07;10.90;99.90
64987;DHT22;67903;52.108;9.358;2024-02-15T02:33:57;10.90;99.90
64987;DHT22;67903;52.108;9.358;2024-02-15T02:36:44;10.90;99.90
64987;DHT22;67903;52.108;9.358;2024-02-15T02:39:31;10.90;99.90
64987;DHT22;67903;52.108;9.358;2024-02-15T02:42:17;10.80;99.90
64987;DHT22;67903;52.108;9.358;2024-02-15T02:45:02;10.80;99.90
64987;DHT22;67903;52.108;9.358;2024-02-15T02:47:49;10.70;99.90
64987;DHT22;67903;52.108;9.358;2024-02-15T02:50:38;10.70;99.90
64987;DHT22;67903;52.108;9.358;2024-02-15T02:53:24;10.70;99.90
64987;DHT22;67903;52.108;9.358;2024-02-15T02:56:09;10.90;99.90
64987;DHT22;67903;52.108;9.358;2024-02-15T02:58:55;10.90;99.90
64987;DHT22;67903;52.108;9.358;2024-02-15T03:01:40;11.00;99.90
64987;DHT22;67903;52.108;9.358;2024-02-15T03:04:26;11.00;99.90
64987;DHT22;67903;52.108;9.358;2024-02-15T03:07:12;11.00;99.90
64987;DHT22;67903;52.108;9.358;2024-02-15T03:10:06;11.10;99.90
64987;DHT22;67903;52.108;9.358;2024-02-15T03:12:55;11.10;99.90
64987;DHT22;67903;52.108;9.358;2024-02-15T03:15:41;11.10;99.90
64987;DHT22;67903;52.108;9.358;2024-02-15T03:18:27;11.10;99.90
64987;DHT22;67903;52.108;9.358;2024-02-15T03:21:12;11.10;99.90
64987;DHT22;67903;52.108;9.358;2024-02-15T03:23:58;11.10;99.90
64987;DHT22;67903;52.108;9.358;2024-02-15T03:26:43;11.10;99.90
64987;DHT22;67903;52.108;9.358;2024-02-15T03:29:29;11.10;99.90
64987;DHT22;67903;52.108;9.358;2024-02-15T03:32:15;11.20;99.90
64987;DHT22;67903;52.108;9.358;2024-02-15T03:35:01;11.10;99.90
64987;DHT22;67903;52.108;9.358;2024-02-15T03:37:47;11.10;99.90
64987;DHT22;67903;52.108;9.358;2024-02-15T03:40:32;11.10;99.90
64987;DHT22;67903;52.108;9.358;2024-02-15T03:43:18;11.10;99.90
64987;DHT22;67903;52.108;9.358;2024-02-15T03:46:04;11.10;99.90
64987;DHT22;67903;52.108;9.358;2024-02-15T03:48:50;11.10;99.90
64987;DHT22;67903;52.108;9.358;2024-02-15T03:51:36;11.10;99.90
64987;DHT22;67903;52.108;9.358;2024-02-15T03:54:22;11.10;99.90
64987;DHT22;67903;52.108;9.358;2024-02-15T03:57:09;11.10;99.90
64987;DHT22;67903;52.108;9.358;2024-02-15T03:59:56;11.10;99.90
64987;DHT22;67903;52.108;9.358;2024-02-15T04:02:43;11.10;99.90
64987;DHT22;67903;52.108;9.358;2024-02-15T04:05:28;11.10;99.90
64987;DHT22;67903;52.108;9.358;2024-02-15T04:08:14;11.10;99.90
64987;DHT22;67903;52.108;9.358;2024-02-15T04:11:02;11.10;99.90
64987;DHT22;67903;52.108;9.358;2024-02-15T04:13:47;11.10;99.90
64987;DHT22;67903;52.108;9.358;2024-02-15T04:16:33;11.10;99.90
64987;DHT22;67903;52.108;9.358;2024-02-15T04:19:23;11.10;99.90
64987;DHT22;67903;52.108;9.358;2024-02-15T04:22:09;11.10;99.90
64987;DHT22;67903;52.108;9.358;2024-02-15T04:24:55;11.10;99.90
64987;DHT22;67903;52.108;9.358;2024-02-15T04:27:42;11.10;99.90
64987;DHT22;67903;52.108;9.358;2024-02-15T04:30:27;11.10;99.90
64987;DHT22;67903;52.108;9.358;2024-02-15T04:33:13;11.00;99.90
64987;DHT22;67903;52.108;9.358;2024-02-15T04:36:00;11.00;99.90
64987;DHT22;67903;52.108;9.358;2024-02-15T04:38:50;11.00;99.90
64987;DHT22;67903;52.108;9.358;2024-02-15T04:41:35;11.00;99.90
64987;DHT22;67903;52.108;9.358;2024-02-15T04:44:21;11.00;99.90
64987;DHT22;67903;52.108;9.358;2024-02-15T04:47:07;11.00;99.90
64987;DHT22;67903;52.108;9.358;2024-02-15T04:49:52;10.90;99.90
64987;DHT22;67903;52.108;9.358;2024-02-15T04:52:37;10.90;99.90
64987;DHT22;67903;52.108;9.358;2024-02-15T04:55:24;11.10;99.90
64987;DHT22;67903;52.108;9.358;2024-02-15T04:58:11;11.00;99.90
64987;DHT22;67903;52.108;9.358;2024-02-15T05:00:57;11.00;99.90
64987;DHT22;67903;52.108;9.358;2024-02-15T05:03:45;10.90;99.90
64987;DHT22;67903;52.108;9.358;2024-02-15T05:06:31;10.90;99.90
64987;DHT22;67903;52.108;9.358;2024-02-15T05:09:17;10.90;99.90
64987;DHT22;67903;52.108;9.358;2024-02-15T05:12:04;10.90;99.90
64987;DHT22;67903;52.108;9.358;2024-02-15T05:14:49;10.80;99.90
64987;DHT22;67903;52.108;9.358;2024-02-15T05:17:40;10.80;99.90
64987;DHT22;67903;52.108;9.358;2024-02-15T05:20:28;10.80;99.90
64987;DHT22;67903;52.108;9.358;2024-02-15T05:23:14;10.80;99.90
64987;DHT22;67903;52.108;9.358;2024-02-15T05:26:02;10.80;99.90
64987;DHT22;67903;52.108;9.358;2024-02-15T05:28:49;10.70;99.90
64987;DHT22;67903;52.108;9.358;2024-02-15T05:31:34;10.70;99.90
64987;DHT22;67903;52.108;9.358;2024-02-15T05:34:20;10.70;99.90
64987;DHT22;67903;52.108;9.358;2024-02-15T05:37:06;10.70;99.90
64987;DHT22;67903;52.108;9.358;2024-02-15T05:39:56;10.70;99.90
64987;DHT22;67903;52.108;9.358;2024-02-15T05:42:42;10.70;99.90
64987;DHT22;67903;52.108;9.358;2024-02-15T05:45:31;10.70;99.90
64987;DHT22;67903;52.108;9.358;2024-02-15T05:48:19;10.70;99.90
64987;DHT22;67903;52.108;9.358;2024-02-15T05:51:08;10.70;99.90
64987;DHT22;67903;52.108;9.358;2024-02-15T05:53:53;10.70;99.90
64987;DHT22;67903;52.108;9.358;2024-02-15T05:56:44;10.70;99.90
64987;DHT22;67903;52.108;9.358;2024-02-15T05:59:29;10.70;99.90
64987;DHT22;67903;52.108;9.358;2024-02-15T06:02:15;10.70;99.90
64987;DHT22;67903;52.108;9.358;2024-02-15T06:05:00;10.70;99.90
64987;DHT22;67903;52.108;9.358;2024-02-15T06:07:49;10.70;99.90
64987;DHT22;67903;52.108;9.358;2024-02-15T06:10:34;10.80;99.90
64987;DHT22;67903;52.108;9.358;2024-02-15T06:13:21;10.80;99.90
64987;DHT22;67903;52.108;9.358;2024-02-15T06:16:07;10.80;99.90
64987;DHT22;67903;52.108;9.358;2024-02-15T06:18:55;10.70;99.90
64987;DHT22;67903;52.108;9.358;2024-02-15T06:21:41;10.80;99.90
64987;DHT22;67903;52.108;9.358;2024-02-15T06:24:27;10.80;99.90
64987;DHT22;67903;52.108;9.358;2024-02-15T06:27:13;10.70;99.90
64987;DHT22;67903;52.108;9.358;2024-02-15T06:30:01;10.80;99.90
64987;DHT22;67903;52.108;9.358;2024-02-15T06:33:05;10.80;99.90
64987;DHT22;67903;52.108;9.358;2024-02-15T06:36:10;10.70;99.90
64987;DHT22;67903;52.108;9.358;2024-02-15T06:39:14;10.80;99.90
64987;DHT22;67903;52.108;9.358;2024-02-15T06:42:17;10.80;99.90
64987;DHT22;67903;52.108;9.358;2024-02-15T06:45:06;10.80;99.90
64987;DHT22;67903;52.108;9.358;2024-02-15T06:47:53;10.70;99.90
64987;DHT22;67903;52.108;9.358;2024-02-15T06:50:39;10.70;99.90
64987;DHT22;67903;52.108;9.358;2024-02-15T06:53:24;10.80;99.90
64987;DHT22;67903;52.108;9.358;2024-02-15T06:56:10;10.80;99.90
64987;DHT22;67903;52.108;9.358;2024-02-15T06:58:57;10.80;99.90
64987;DHT22;67903;52.108;9.358;2024-02-15T07:01:44;10.80;99.90
64987;DHT22;67903;52.108;9.358;2024-02-15T07:04:30;10.80;99.90
64987;DHT22;67903;52.108;9.358;2024-02-15T07:07:17;10.80;99.90
64987;DHT22;67903;52.108;9.358;2024-02-15T07:10:03;10.80;99.90
64987;DHT22;67903;52.108;9.358;2024-02-15T07:12:48;10.80;99.90
64987;DHT22;67903;52.108;9.358;2024-02-15T07:15:34;10.80;99.90
64987;DHT22;67903;52.108;9.358;2024-02-15T07:18:23;10.80;99.90
64987;DHT22;67903;52.108;9.358;2024-02-15T07:21:13;10.80;99.90
64987;DHT22;67903;52.108;9.358;2024-02-15T07:24:02;10.80;99.90
64987;DHT22;67903;52.108;9.358;2024-02-15T07:26:50;10.80;99.90
64987;DHT22;67903;52.108;9.358;2024-02-15T07:29:38;10.80;99.90
64987;DHT22;67903;52.108;9.358;2024-02-15T07:32:23;10.80;99.90
64987;DHT22;67903;52.108;9.358;2024-02-15T07:35:09;10.80;99.90
64987;DHT22;67903;52.108;9.358;2024-02-15T07:37:55;10.90;99.90
64987;DHT22;67903;52.108;9.358;2024-02-15T07:40:45;10.90;99.90
64987;DHT22;67903;52.108;9.358;2024-02-15T07:43:31;11.00;99.90
64987;DHT22;67903;52.108;9.358;2024-02-15T07:46:18;11.00;99.90
64987;DHT22;67903;52.108;9.358;2024-02-15T07:49:04;11.00;99.90
64987;DHT22;67903;52.108;9.358;2024-02-15T07:51:51;11.00;99.90
64987;DHT22;67903;52.108;9.358;2024-02-15T07:54:39;11.00;99.90
64987;DHT22;67903;52.108;9.358;2024-02-15T07:57:24;11.10;99.90
64987;DHT22;67903;52.108;9.358;2024-02-15T08:00:10;11.10;99.90
64987;DHT22;67903;52.108;9.358;2024-02-15T08:02:56;11.10;99.90
64987;DHT22;67903;52.108;9.358;2024-02-15T08:05:46;11.10;99.90
64987;DHT22;67903;52.108;9.358;2024-02-15T08:08:34;11.10;99.90
64987;DHT22;67903;52.108;9.358;2024-02-15T08:11:20;11.10;99.90
64987;DHT22;67903;52.108;9.358;2024-02-15T08:14:06;11.10;99.90
64987;DHT22;67903;52.108;9.358;2024-02-15T08:16:58;11.30;99.90
64987;DHT22;67903;52.108;9.358;2024-02-15T08:19:43;11.30;99.80
64987;DHT22;67903;52.108;9.358;2024-02-15T08:22:32;11.40;99.60
64987;DHT22;67903;52.108;9.358;2024-02-15T08:25:17;11.30;99.10
64987;DHT22;67903;52.108;9.358;2024-02-15T08:28:04;11.30;99.40
64987;DHT22;67903;52.108;9.358;2024-02-15T08:30:54;11.40;99.00
64987;DHT22;67903;52.108;9.358;2024-02-15T08:33:39;11.40;98.50
64987;DHT22;67903;52.108;9.358;2024-02-15T08:36:25;11.50;98.10
64987;DHT22;67903;52.108;9.358;2024-02-15T08:39:10;11.50;97.70
64987;DHT22;67903;52.108;9.358;2024-02-15T08:41:57;11.50;97.00
64987;DHT22;67903;52.108;9.358;2024-02-15T08:44:44;11.50;97.20
64987;DHT22;67903;52.108;9.358;2024-02-15T08:47:29;11.50;97.00
64987;DHT22;67903;52.108;9.358;2024-02-15T08:50:15;11.50;96.40
64987;DHT22;67903;52.108;9.358;2024-02-15T08:53:02;11.60;96.30
64987;DHT22;67903;52.108;9.358;2024-02-15T08:55:52;11.70;96.20
64987;DHT22;67903;52.108;9.358;2024-02-15T08:58:38;11.70;95.70
64987;DHT22;67903;52.108;9.358;2024-02-15T09:01:25;11.70;95.30
64987;DHT22;67903;52.108;9.358;2024-02-15T09:04:10;11.70;95.10
64987;DHT22;67903;52.108;9.358;2024-02-15T09:06:56;11.80;95.30
64987;DHT22;67903;52.108;9.358;2024-02-15T09:09:42;11.90;95.20
64987;DHT22;67903;52.108;9.358;2024-02-15T09:12:27;11.90;94.30
64987;DHT22;67903;52.108;9.358;2024-02-15T09:15:13;11.90;94.40
64987;DHT22;67903;52.108;9.358;2024-02-15T09:17:59;11.90;95.00
64987;DHT22;67903;52.108;9.358;2024-02-15T09:20:47;11.80;94.60
64987;DHT22;67903;52.108;9.358;2024-02-15T09:23:34;11.80;95.20
64987;DHT22;67903;52.108;9.358;2024-02-15T09:26:20;11.80;95.80
64987;DHT22;67903;52.108;9.358;2024-02-15T09:29:05;11.90;95.50
64987;DHT22;67903;52.108;9.358;2024-02-15T09:31:52;11.90;94.50
64987;DHT22;67903;52.108;9.358;2024-02-15T09:34:38;11.90;94.40
64987;DHT22;67903;52.108;9.358;2024-02-15T09:37:23;11.90;95.60
64987;DHT22;67903;52.108;9.358;2024-02-15T09:40:15;11.90;96.50
64987;DHT22;67903;52.108;9.358;2024-02-15T09:43:02;11.90;96.70
64987;DHT22;67903;52.108;9.358;2024-02-15T09:45:48;11.90;97.20
64987;DHT22;67903;52.108;9.358;2024-02-15T09:48:34;11.90;98.00
64987;DHT22;67903;52.108;9.358;2024-02-15T09:51:20;11.90;97.60
64987;DHT22;67903;52.108;9.358;2024-02-15T09:54:07;11.90;98.00
64987;DHT22;67903;52.108;9.358;2024-02-15T09:56:55;11.90;97.60
64987;DHT22;67903;52.108;9.358;2024-02-15T09:59:42;11.90;98.10
64987;DHT22;67903;52.108;9.358;2024-02-15T10:02:31;11.90;98.10
64987;DHT22;67903;52.108;9.358;2024-02-15T10:05:17;11.90;97.00
64987;DHT22;67903;52.108;9.358;2024-02-15T10:08:03;11.90;97.00
64987;DHT22;67903;52.108;9.358;2024-02-15T10:11:05;11.90;97.20
64987;DHT22;67903;52.108;9.358;2024-02-15T10:13:51;12.00;97.20
64987;DHT22;67903;52.108;9.358;2024-02-15T10:16:36;12.10;97.20
64987;DHT22;67903;52.108;9.358;2024-02-15T10:19:23;12.20;97.40
64987;DHT22;67903;52.108;9.358;2024-02-15T10:22:11;12.30;97.70
64987;DHT22;67903;52.108;9.358;2024-02-15T10:25:29;12.50;97.20
64987;DHT22;67903;52.108;9.358;2024-02-15T10:28:20;12.50;96.40
64987;DHT22;67903;52.108;9.358;2024-02-15T10:31:08;12.50;95.80
64987;DHT22;67903;52.108;9.358;2024-02-15T10:34:03;12.50;97.10
64987;DHT22;67903;52.108;9.358;2024-02-15T10:36:50;12.40;96.90
64987;DHT22;67903;52.108;9.358;2024-02-15T10:39:35;12.30;97.50
64987;DHT22;67903;52.108;9.358;2024-02-15T10:42:21;12.30;97.30
64987;DHT22;67903;52.108;9.358;2024-02-15T10:45:07;12.20;97.30
64987;DHT22;67903;52.108;9.358;2024-02-15T10:47:58;12.20;97.30
64987;DHT22;67903;52.108;9.358;2024-02-15T10:50:45;12.20;97.50
64987;DHT22;67903;52.108;9.358;2024-02-15T10:53:31;12.30;97.70
64987;DHT22;67903;52.108;9.358;2024-02-15T10:56:24;12.30;96.90
64987;DHT22;67903;52.108;9.358;2024-02-15T10:59:19;12.40;96.90
64987;DHT22;67903;52.108;9.358;2024-02-15T11:02:26;12.50;96.90
64987;DHT22;67903;52.108;9.358;2024-02-15T11:05:14;12.50;96.00
64987;DHT22;67903;52.108;9.358;2024-02-15T11:08:07;12.50;95.60
64987;DHT22;67903;52.108;9.358;2024-02-15T11:10:54;12.50;97.10
64987;DHT22;67903;52.108;9.358;2024-02-15T11:13:44;12.50;96.30
64987;DHT22;67903;52.108;9.358;2024-02-15T11:16:42;12.50;97.20
64987;DHT22;67903;52.108;9.358;2024-02-15T11:22:22;12.20;97.10
64987;DHT22;67903;52.108;9.358;2024-02-15T11:25:08;12.20;97.00
64987;DHT22;67903;52.108;9.358;2024-02-15T11:27:56;12.10;96.90
64987;DHT22;67903;52.108;9.358;2024-02-15T11:30:42;12.10;98.00
64987;DHT22;67903;52.108;9.358;2024-02-15T11:33:32;12.10;98.10
64987;DHT22;67903;52.108;9.358;2024-02-15T11:36:30;12.00;98.80
64987;DHT22;67903;52.108;9.358;2024-02-15T11:39:42;11.90;99.80
64987;DHT22;67903;52.108;9.358;2024-02-15T11:42:28;11.90;99.90
64987;DHT22;67903;52.108;9.358;2024-02-15T11:45:15;11.90;99.90
64987;DHT22;67903;52.108;9.358;2024-02-15T11:48:08;11.80;99.90
64987;DHT22;67903;52.108;9.358;2024-02-15T11:50:58;11.70;99.90
64987;DHT22;67903;52.108;9.358;2024-02-15T11:53:45;11.70;99.90
64987;DHT22;67903;52.108;9.358;2024-02-15T11:56:51;11.70;99.90
64987;DHT22;67903;52.108;9.358;2024-02-15T11:59:43;11.70;99.90
64987;DHT22;67903;52.108;9.358;2024-02-15T12:02:49;11.70;99.90
64987;DHT22;67903;52.108;9.358;2024-02-15T12:05:55;11.70;99.90
64987;DHT22;67903;52.108;9.358;2024-02-15T12:08:59;11.70;99.90
64987;DHT22;67903;52.108;9.358;2024-02-15T12:12:03;11.90;99.90
64987;DHT22;67903;52.108;9.358;2024-02-15T12:15:08;11.90;99.90
64987;DHT22;67903;52.108;9.358;2024-02-15T12:18:16;11.90;99.90
64987;DHT22;67903;52.108;9.358;2024-02-15T12:21:24;11.90;99.90
64987;DHT22;67903;52.108;9.358;2024-02-15T12:24:12;11.80;99.90
64987;DHT22;67903;52.108;9.358;2024-02-15T12:27:02;11.70;99.90
64987;DHT22;67903;52.108;9.358;2024-02-15T12:29:56;11.70;99.90
64987;DHT22;67903;52.108;9.358;2024-02-15T12:32:43;11.70;99.90
64987;DHT22;67903;52.108;9.358;2024-02-15T12:35:28;11.70;99.90
64987;DHT22;67903;52.108;9.358;2024-02-15T12:38:14;11.70;99.90
64987;DHT22;67903;52.108;9.358;2024-02-15T12:41:04;11.80;99.90
64987;DHT22;67903;52.108;9.358;2024-02-15T12:43:53;11.80;99.90
64987;DHT22;67903;52.108;9.358;2024-02-15T12:46:39;11.90;99.90
64987;DHT22;67903;52.108;9.358;2024-02-15T12:52:36;12.00;99.10
64987;DHT22;67903;52.108;9.358;2024-02-15T12:55:23;12.00;98.30
64987;DHT22;67903;52.108;9.358;2024-02-15T12:58:14;12.10;98.50
64987;DHT22;67903;52.108;9.358;2024-02-15T13:01:00;12.20;98.80
64987;DHT22;67903;52.108;9.358;2024-02-15T13:03:47;12.30;97.20
64987;DHT22;67903;52.108;9.358;2024-02-15T13:06:32;12.40;97.30
64987;DHT22;67903;52.108;9.358;2024-02-15T13:09:20;12.50;97.50
64987;DHT22;67903;52.108;9.358;2024-02-15T13:12:08;12.50;97.60
64987;DHT22;67903;52.108;9.358;2024-02-15T13:14:56;12.70;98.20
64987;DHT22;67903;52.108;9.358;2024-02-15T13:17:46;12.80;98.60
64987;DHT22;67903;52.108;9.358;2024-02-15T13:20:34;12.90;97.40
64987;DHT22;67903;52.108;9.358;2024-02-15T13:23:20;12.90;95.70
64987;DHT22;67903;52.108;9.358;2024-02-15T13:26:10;12.90;96.40
64987;DHT22;67903;52.108;9.358;2024-02-15T13:28:56;12.90;97.00
64987;DHT22;67903;52.108;9.358;2024-02-15T13:31:41;12.80;96.80
64987;DHT22;67903;52.108;9.358;2024-02-15T13:34:28;12.80;96.60
64987;DHT22;67903;52.108;9.358;2024-02-15T13:37:14;12.80;98.00
64987;DHT22;67903;52.108;9.358;2024-02-15T13:39:59;12.80;98.40
64987;DHT22;67903;52.108;9.358;2024-02-15T13:42:46;12.80;98.70
64987;DHT22;67903;52.108;9.358;2024-02-15T13:45:40;12.80;98.80
64987;DHT22;67903;52.108;9.358;2024-02-15T13:48:29;12.90;97.80
64987;DHT22;67903;52.108;9.358;2024-02-15T13:51:15;12.90;97.40
64987;DHT22;67903;52.108;9.358;2024-02-15T13:54:01;12.90;97.30
64987;DHT22;67903;52.108;9.358;2024-02-15T13:56:46;13.00;97.40
64987;DHT22;67903;52.108;9.358;2024-02-15T13:59:32;13.00;97.30
64987;DHT22;67903;52.108;9.358;2024-02-15T14:02:19;12.90;96.30
64987;DHT22;67903;52.108;9.358;2024-02-15T14:05:05;12.90;96.50
64987;DHT22;67903;52.108;9.358;2024-02-15T14:07:58;12.90;96.40
64987;DHT22;67903;52.108;9.358;2024-02-15T14:10:44;12.90;96.00
64987;DHT22;67903;52.108;9.358;2024-02-15T14:13:30;12.80;95.80
64987;DHT22;67903;52.108;9.358;2024-02-15T14:16:15;12.80;95.50
64987;DHT22;67903;52.108;9.358;2024-02-15T14:19:02;12.80;96.00
64987;DHT22;67903;52.108;9.358;2024-02-15T14:21:48;12.80;95.80
64987;DHT22;67903;52.108;9.358;2024-02-15T14:24:34;12.80;96.40
64987;DHT22;67903;52.108;9.358;2024-02-15T14:27:19;12.70;96.30
64987;DHT22;67903;52.108;9.358;2024-02-15T14:30:06;12.70;95.70
64987;DHT22;67903;52.108;9.358;2024-02-15T14:33:10;12.70;96.10
64987;DHT22;67903;52.108;9.358;2024-02-15T14:36:06;12.70;95.40
64987;DHT22;67903;52.108;9.358;2024-02-15T14:38:52;12.70;95.80
64987;DHT22;67903;52.108;9.358;2024-02-15T14:41:40;12.60;95.80
64987;DHT22;67903;52.108;9.358;2024-02-15T14:44:35;12.50;96.60
64987;DHT22;67903;52.108;9.358;2024-02-15T14:47:22;12.50;96.50
64987;DHT22;67903;52.108;9.358;2024-02-15T14:50:08;12.50;96.60
64987;DHT22;67903;52.108;9.358;2024-02-15T14:52:54;12.50;95.70
64987;DHT22;67903;52.108;9.358;2024-02-15T14:55:39;12.50;96.80
64987;DHT22;67903;52.108;9.358;2024-02-15T14:58:26;12.50;95.90
64987;DHT22;67903;52.108;9.358;2024-02-15T15:01:12;12.50;96.70
64987;DHT22;67903;52.108;9.358;2024-02-15T15:03:58;12.50;96.20
64987;DHT22;67903;52.108;9.358;2024-02-15T15:06:48;12.50;97.00
64987;DHT22;67903;52.108;9.358;2024-02-15T15:09:53;12.50;96.90
64987;DHT22;67903;52.108;9.358;2024-02-15T15:12:57;12.50;97.30
64987;DHT22;67903;52.108;9.358;2024-02-15T15:15:42;12.50;96.60
64987;DHT22;67903;52.108;9.358;2024-02-15T15:18:31;12.50;97.70
64987;DHT22;67903;52.108;9.358;2024-02-15T15:21:18;12.40;97.80
64987;DHT22;67903;52.108;9.358;2024-02-15T15:24:04;12.40;97.50
64987;DHT22;67903;52.108;9.358;2024-02-15T15:26:50;12.50;97.20
64987;DHT22;67903;52.108;9.358;2024-02-15T15:29:35;12.30;97.60
64987;DHT22;67903;52.108;9.358;2024-02-15T15:32:21;12.30;97.80
64987;DHT22;67903;52.108;9.358;2024-02-15T15:35:06;12.30;97.60
64987;DHT22;67903;52.108;9.358;2024-02-15T15:37:54;12.20;97.70
64987;DHT22;67903;52.108;9.358;2024-02-15T15:40:40;12.20;97.30
64987;DHT22;67903;52.108;9.358;2024-02-15T15:43:26;12.30;97.90
64987;DHT22;67903;52.108;9.358;2024-02-15T15:46:15;12.20;96.90
64987;DHT22;67903;52.108;9.358;2024-02-15T15:49:01;12.20;97.60
64987;DHT22;67903;52.108;9.358;2024-02-15T15:51:49;12.20;97.10
64987;DHT22;67903;52.108;9.358;2024-02-15T15:54:35;12.20;97.50
64987;DHT22;67903;52.108;9.358;2024-02-15T15:57:20;12.20;98.20
64987;DHT22;67903;52.108;9.358;2024-02-15T16:00:07;12.20;97.00
64987;DHT22;67903;52.108;9.358;2024-02-15T16:03:00;12.20;97.20
64987;DHT22;67903;52.108;9.358;2024-02-15T16:05:50;12.20;96.40
64987;DHT22;67903;52.108;9.358;2024-02-15T16:08:35;12.10;97.00
64987;DHT22;67903;52.108;9.358;2024-02-15T16:11:21;12.10;95.50
64987;DHT22;67903;52.108;9.358;2024-02-15T16:14:10;12.20;95.70
64987;DHT22;67903;52.108;9.358;2024-02-15T16:16:58;12.10;96.20
64987;DHT22;67903;52.108;9.358;2024-02-15T16:19:44;12.10;96.90
64987;DHT22;67903;52.108;9.358;2024-02-15T16:22:31;12.20;95.10
64987;DHT22;67903;52.108;9.358;2024-02-15T16:25:19;12.20;94.70
64987;DHT22;67903;52.108;9.358;2024-02-15T16:28:05;12.20;94.50
64987;DHT22;67903;52.108;9.358;2024-02-15T16:30:53;12.20;94.40
64987;DHT22;67903;52.108;9.358;2024-02-15T16:33:39;12.10;94.60
64987;DHT22;67903;52.108;9.358;2024-02-15T16:36:25;12.10;94.10
64987;DHT22;67903;52.108;9.358;2024-02-15T16:39:12;12.00;94.40
64987;DHT22;67903;52.108;9.358;2024-02-15T16:42:00;12.00;94.40
64987;DHT22;67903;52.108;9.358;2024-02-15T16:44:47;12.00;94.90
64987;DHT22;67903;52.108;9.358;2024-02-15T16:47:32;12.00;94.90
64987;DHT22;67903;52.108;9.358;2024-02-15T16:50:22;11.90;95.10
64987;DHT22;67903;52.108;9.358;2024-02-15T16:53:07;11.90;94.70
64987;DHT22;67903;52.108;9.358;2024-02-15T16:55:56;11.90;94.30
64987;DHT22;67903;52.108;9.358;2024-02-15T16:58:41;11.90;94.20
64987;DHT22;67903;52.108;9.358;2024-02-15T17:01:27;11.80;94.80
64987;DHT22;67903;52.108;9.358;2024-02-15T17:04:13;11.90;94.50
64987;DHT22;67903;52.108;9.358;2024-02-15T17:07:01;11.70;94.60
64987;DHT22;67903;52.108;9.358;2024-02-15T17:09:46;11.70;94.30
64987;DHT22;67903;52.108;9.358;2024-02-15T17:12:32;11.70;94.40
64987;DHT22;67903;52.108;9.358;2024-02-15T17:15:22;11.70;95.20
64987;DHT22;67903;52.108;9.358;2024-02-15T17:18:12;11.70;94.20
64987;DHT22;67903;52.108;9.358;2024-02-15T17:21:04;11.70;94.50
64987;DHT22;67903;52.108;9.358;2024-02-15T17:23:52;11.60;94.30
64987;DHT22;67903;52.108;9.358;2024-02-15T17:26:44;11.70;93.80
64987;DHT22;67903;52.108;9.358;2024-02-15T17:29:30;11.60;94.20
64987;DHT22;67903;52.108;9.358;2024-02-15T17:32:16;11.50;94.40
64987;DHT22;67903;52.108;9.358;2024-02-15T17:35:01;11.50;94.80
64987;DHT22;67903;52.108;9.358;2024-02-15T17:37:47;11.50;94.30
64987;DHT22;67903;52.108;9.358;2024-02-15T17:40:33;11.50;94.50
64987;DHT22;67903;52.108;9.358;2024-02-15T17:43:19;11.50;94.60
64987;DHT22;67903;52.108;9.358;2024-02-15T17:46:04;11.50;94.60